sensor_id;sensor_type;location;lat;lon;timestamp;P1;durP1;ratioP1;P2;durP2;ratioP2
21114;SDS011;10715;48.546;9.896;2023-01-01T00:00:22;7.27;;;6.57;;
21114;SDS011;10715;48.546;9.896;2023-01-01T00:02:48;37.30;;;23.50;;
21114;SDS011;10715;48.546;9.896;2023-01-01T00:05:13;43.87;;;25.43;;
21114;SDS011;10715;48.546;9.896;2023-01-01T00:07:39;36.83;;;23.13;;
21114;SDS011;10715;48.546;9.896;2023-01-01T00:10:05;171.47;;;99.43;;
21114;SDS011;10715;48.546;9.896;2023-01-01T00:12:49;123.50;;;73.30;;
21114;SDS011;10715;48.546;9.896;2023-01-01T00:15:15;86.40;;;44.53;;
21114;SDS011;10715;48.546;9.896;2023-01-01T00:17:40;38.63;;;23.20;;
21114;SDS011;10715;48.546;9.896;2023-01-01T00:20:06;23.83;;;15.40;;
21114;SDS011;10715;48.546;9.896;2023-01-01T00:22:32;22.47;;;13.07;;
21114;SDS011;10715;48.546;9.896;2023-01-01T00:24:58;12.77;;;11.37;;
21114;SDS011;10715;48.546;9.896;2023-01-01T00:27:24;16.00;;;10.40;;
21114;SDS011;10715;48.546;9.896;2023-01-01T00:29:49;19.70;;;9.93;;
21114;SDS011;10715;48.546;9.896;2023-01-01T00:32:15;13.77;;;10.27;;
21114;SDS011;10715;48.546;9.896;2023-01-01T00:34:41;15.03;;;9.60;;
21114;SDS011;10715;48.546;9.896;2023-01-01T00:37:06;20.33;;;10.80;;
21114;SDS011;10715;48.546;9.896;2023-01-01T00:39:32;16.80;;;13.17;;
21114;SDS011;10715;48.546;9.896;2023-01-01T00:41:58;23.17;;;14.30;;
21114;SDS011;10715;48.546;9.896;2023-01-01T00:44:23;28.97;;;17.97;;
21114;SDS011;10715;48.546;9.896;2023-01-01T00:46:49;31.20;;;17.93;;
21114;SDS011;10715;48.546;9.896;2023-01-01T00:49:15;35.70;;;18.10;;
21114;SDS011;10715;48.546;9.896;2023-01-01T00:51:42;30.30;;;17.93;;
21114;SDS011;10715;48.546;9.896;2023-01-01T00:54:08;39.67;;;20.30;;
21114;SDS011;10715;48.546;9.896;2023-01-01T00:56:33;70.00;;;33.07;;
21114;SDS011;10715;48.546;9.896;2023-01-01T00:58:59;55.80;;;29.43;;
21114;SDS011;10715;48.546;9.896;2023-01-01T01:01:25;66.83;;;29.27;;
21114;SDS011;10715;48.546;9.896;2023-01-01T01:03:51;56.37;;;30.03;;
21114;SDS011;10715;48.546;9.896;2023-01-01T01:06:17;52.83;;;30.83;;
21114;SDS011;10715;48.546;9.896;2023-01-01T01:08:44;33.40;;;19.13;;
21114;SDS011;10715;48.546;9.896;2023-01-01T01:11:11;32.73;;;19.47;;
21114;SDS011;10715;48.546;9.896;2023-01-01T01:13:40;37.73;;;19.63;;
21114;SDS011;10715;48.546;9.896;2023-01-01T01:16:10;30.07;;;17.57;;
21114;SDS011;10715;48.546;9.896;2023-01-01T01:18:38;21.90;;;15.00;;
21114;SDS011;10715;48.546;9.896;2023-01-01T01:21:04;22.03;;;12.70;;
21114;SDS011;10715;48.546;9.896;2023-01-01T01:23:31;18.20;;;12.73;;
21114;SDS011;10715;48.546;9.896;2023-01-01T01:26:10;19.10;;;12.37;;
21114;SDS011;10715;48.546;9.896;2023-01-01T01:28:47;18.40;;;11.17;;
21114;SDS011;10715;48.546;9.896;2023-01-01T01:31:13;20.07;;;12.20;;
21114;SDS011;10715;48.546;9.896;2023-01-01T01:33:39;16.77;;;13.20;;
21114;SDS011;10715;48.546;9.896;2023-01-01T01:36:07;15.87;;;11.87;;
21114;SDS011;10715;48.546;9.896;2023-01-01T01:38:34;29.17;;;14.30;;
21114;SDS011;10715;48.546;9.896;2023-01-01T01:41:00;32.13;;;15.50;;
21114;SDS011;10715;48.546;9.896;2023-01-01T01:46:00;32.87;;;21.73;;
21114;SDS011;10715;48.546;9.896;2023-01-01T01:48:42;40.47;;;21.23;;
21114;SDS011;10715;48.546;9.896;2023-01-01T01:51:11;29.70;;;18.40;;
21114;SDS011;10715;48.546;9.896;2023-01-01T01:53:43;29.67;;;20.30;;
21114;SDS011;10715;48.546;9.896;2023-01-01T01:56:14;29.13;;;15.93;;
21114;SDS011;10715;48.546;9.896;2023-01-01T01:58:44;15.90;;;11.30;;
21114;SDS011;10715;48.546;9.896;2023-01-01T02:01:10;17.27;;;12.40;;
21114;SDS011;10715;48.546;9.896;2023-01-01T02:03:38;18.53;;;10.50;;
21114;SDS011;10715;48.546;9.896;2023-01-01T02:06:16;17.60;;;11.17;;
21114;SDS011;10715;48.546;9.896;2023-01-01T02:08:44;18.40;;;11.40;;
21114;SDS011;10715;48.546;9.896;2023-01-01T02:11:10;18.77;;;11.80;;
21114;SDS011;10715;48.546;9.896;2023-01-01T02:13:36;31.17;;;17.43;;
21114;SDS011;10715;48.546;9.896;2023-01-01T02:18:44;30.37;;;13.93;;
21114;SDS011;10715;48.546;9.896;2023-01-01T02:21:13;19.70;;;12.07;;
21114;SDS011;10715;48.546;9.896;2023-01-01T02:26:41;16.03;;;9.93;;
21114;SDS011;10715;48.546;9.896;2023-01-01T02:31:57;17.73;;;8.80;;
21114;SDS011;10715;48.546;9.896;2023-01-01T02:34:34;15.17;;;9.03;;
21114;SDS011;10715;48.546;9.896;2023-01-01T02:37:11;12.23;;;8.10;;
21114;SDS011;10715;48.546;9.896;2023-01-01T02:39:41;18.03;;;10.00;;
21114;SDS011;10715;48.546;9.896;2023-01-01T02:42:12;13.17;;;10.10;;
21114;SDS011;10715;48.546;9.896;2023-01-01T02:44:39;13.47;;;9.40;;
21114;SDS011;10715;48.546;9.896;2023-01-01T02:47:09;16.30;;;10.40;;
21114;SDS011;10715;48.546;9.896;2023-01-01T02:49:38;15.97;;;10.50;;
21114;SDS011;10715;48.546;9.896;2023-01-01T02:52:12;8.43;;;7.53;;
21114;SDS011;10715;48.546;9.896;2023-01-01T02:54:51;13.57;;;9.90;;
21114;SDS011;10715;48.546;9.896;2023-01-01T02:57:31;12.03;;;8.67;;
21114;SDS011;10715;48.546;9.896;2023-01-01T03:00:07;16.33;;;8.63;;
21114;SDS011;10715;48.546;9.896;2023-01-01T03:05:39;14.03;;;9.87;;
21114;SDS011;10715;48.546;9.896;2023-01-01T03:08:55;15.77;;;9.20;;
21114;SDS011;10715;48.546;9.896;2023-01-01T03:14:59;18.83;;;12.00;;
21114;SDS011;10715;48.546;9.896;2023-01-01T03:19:46;20.50;;;10.17;;
21114;SDS011;10715;48.546;9.896;2023-01-01T03:22:15;17.13;;;9.97;;
21114;SDS011;10715;48.546;9.896;2023-01-01T03:24:43;17.13;;;9.60;;
21114;SDS011;10715;48.546;9.896;2023-01-01T03:27:12;8.83;;;7.93;;
21114;SDS011;10715;48.546;9.896;2023-01-01T03:29:46;10.20;;;9.07;;
21114;SDS011;10715;48.546;9.896;2023-01-01T03:32:16;9.33;;;6.80;;
21114;SDS011;10715;48.546;9.896;2023-01-01T03:34:49;9.87;;;7.37;;
21114;SDS011;10715;48.546;9.896;2023-01-01T03:37:20;14.40;;;7.90;;
21114;SDS011;10715;48.546;9.896;2023-01-01T03:39:52;10.33;;;6.83;;
21114;SDS011;10715;48.546;9.896;2023-01-01T03:42:32;10.60;;;7.47;;
21114;SDS011;10715;48.546;9.896;2023-01-01T03:45:03;7.50;;;6.07;;
21114;SDS011;10715;48.546;9.896;2023-01-01T03:47:33;14.87;;;7.13;;
21114;SDS011;10715;48.546;9.896;2023-01-01T03:49:59;12.13;;;6.40;;
21114;SDS011;10715;48.546;9.896;2023-01-01T03:55:13;6.50;;;5.83;;
21114;SDS011;10715;48.546;9.896;2023-01-01T03:58:17;6.30;;;5.70;;
21114;SDS011;10715;48.546;9.896;2023-01-01T04:00:52;6.43;;;5.60;;
21114;SDS011;10715;48.546;9.896;2023-01-01T04:03:28;11.50;;;6.13;;
21114;SDS011;10715;48.546;9.896;2023-01-01T04:05:56;11.50;;;7.40;;
21114;SDS011;10715;48.546;9.896;2023-01-01T04:08:22;7.67;;;5.57;;
21114;SDS011;10715;48.546;9.896;2023-01-01T04:10:50;8.50;;;4.37;;
21114;SDS011;10715;48.546;9.896;2023-01-01T04:13:19;5.83;;;4.97;;
21114;SDS011;10715;48.546;9.896;2023-01-01T04:15:44;9.20;;;5.37;;
21114;SDS011;10715;48.546;9.896;2023-01-01T04:18:10;10.33;;;6.53;;
21114;SDS011;10715;48.546;9.896;2023-01-01T04:20:39;11.23;;;6.00;;
21114;SDS011;10715;48.546;9.896;2023-01-01T04:23:04;9.20;;;5.40;;
21114;SDS011;10715;48.546;9.896;2023-01-01T04:25:30;9.97;;;6.50;;
21114;SDS011;10715;48.546;9.896;2023-01-01T04:27:56;9.87;;;5.93;;
21114;SDS011;10715;48.546;9.896;2023-01-01T04:30:22;9.43;;;7.00;;
21114;SDS011;10715;48.546;9.896;2023-01-01T04:32:48;13.20;;;8.50;;
21114;SDS011;10715;48.546;9.896;2023-01-01T04:35:14;7.43;;;6.20;;
21114;SDS011;10715;48.546;9.896;2023-01-01T04:37:41;14.70;;;8.27;;
21114;SDS011;10715;48.546;9.896;2023-01-01T04:40:08;10.30;;;6.30;;
21114;SDS011;10715;48.546;9.896;2023-01-01T04:42:35;11.00;;;7.87;;
21114;SDS011;10715;48.546;9.896;2023-01-01T04:45:01;14.10;;;7.13;;
21114;SDS011;10715;48.546;9.896;2023-01-01T04:47:27;16.47;;;8.77;;
21114;SDS011;10715;48.546;9.896;2023-01-01T04:49:53;10.67;;;6.30;;
21114;SDS011;10715;48.546;9.896;2023-01-01T04:52:19;10.93;;;7.40;;
21114;SDS011;10715;48.546;9.896;2023-01-01T04:54:44;13.97;;;7.77;;
21114;SDS011;10715;48.546;9.896;2023-01-01T04:57:10;9.90;;;7.93;;
21114;SDS011;10715;48.546;9.896;2023-01-01T04:59:36;12.73;;;7.93;;
21114;SDS011;10715;48.546;9.896;2023-01-01T05:02:02;17.10;;;9.77;;
21114;SDS011;10715;48.546;9.896;2023-01-01T05:04:27;14.60;;;9.37;;
21114;SDS011;10715;48.546;9.896;2023-01-01T05:06:53;14.90;;;8.23;;
21114;SDS011;10715;48.546;9.896;2023-01-01T05:09:19;17.80;;;9.93;;
21114;SDS011;10715;48.546;9.896;2023-01-01T05:11:44;14.20;;;8.83;;
21114;SDS011;10715;48.546;9.896;2023-01-01T05:14:10;14.67;;;8.53;;
21114;SDS011;10715;48.546;9.896;2023-01-01T05:16:36;12.57;;;9.73;;
21114;SDS011;10715;48.546;9.896;2023-01-01T05:19:04;17.83;;;9.60;;
21114;SDS011;10715;48.546;9.896;2023-01-01T05:21:32;18.40;;;10.10;;
21114;SDS011;10715;48.546;9.896;2023-01-01T05:24:00;13.60;;;9.10;;
21114;SDS011;10715;48.546;9.896;2023-01-01T05:26:29;15.07;;;8.93;;
21114;SDS011;10715;48.546;9.896;2023-01-01T05:28:57;17.63;;;9.77;;
21114;SDS011;10715;48.546;9.896;2023-01-01T05:31:25;12.43;;;9.10;;
21114;SDS011;10715;48.546;9.896;2023-01-01T05:33:53;14.30;;;9.20;;
21114;SDS011;10715;48.546;9.896;2023-01-01T05:36:20;13.33;;;9.87;;
21114;SDS011;10715;48.546;9.896;2023-01-01T05:38:48;21.00;;;11.30;;
21114;SDS011;10715;48.546;9.896;2023-01-01T05:41:14;16.70;;;11.00;;
21114;SDS011;10715;48.546;9.896;2023-01-01T05:43:41;18.90;;;9.27;;
21114;SDS011;10715;48.546;9.896;2023-01-01T05:46:12;15.47;;;9.70;;
21114;SDS011;10715;48.546;9.896;2023-01-01T05:48:44;13.50;;;10.27;;
21114;SDS011;10715;48.546;9.896;2023-01-01T05:51:12;18.20;;;11.20;;
21114;SDS011;10715;48.546;9.896;2023-01-01T05:53:45;14.73;;;10.43;;
21114;SDS011;10715;48.546;9.896;2023-01-01T05:56:12;27.43;;;12.50;;
21114;SDS011;10715;48.546;9.896;2023-01-01T05:58:38;15.53;;;11.63;;
21114;SDS011;10715;48.546;9.896;2023-01-01T06:03:51;24.50;;;13.37;;
21114;SDS011;10715;48.546;9.896;2023-01-01T06:06:19;23.67;;;13.10;;
21114;SDS011;10715;48.546;9.896;2023-01-01T06:08:48;16.43;;;10.47;;
21114;SDS011;10715;48.546;9.896;2023-01-01T06:11:18;16.40;;;10.40;;
21114;SDS011;10715;48.546;9.896;2023-01-01T06:13:44;19.10;;;11.67;;
21114;SDS011;10715;48.546;9.896;2023-01-01T06:16:10;21.60;;;11.30;;
21114;SDS011;10715;48.546;9.896;2023-01-01T06:18:36;18.47;;;10.83;;
21114;SDS011;10715;48.546;9.896;2023-01-01T06:21:06;16.73;;;10.70;;
21114;SDS011;10715;48.546;9.896;2023-01-01T06:23:32;22.47;;;11.93;;
21114;SDS011;10715;48.546;9.896;2023-01-01T06:26:05;24.40;;;13.60;;
21114;SDS011;10715;48.546;9.896;2023-01-01T06:28:36;22.53;;;12.73;;
21114;SDS011;10715;48.546;9.896;2023-01-01T06:31:03;22.97;;;13.30;;
21114;SDS011;10715;48.546;9.896;2023-01-01T06:33:31;27.30;;;12.73;;
21114;SDS011;10715;48.546;9.896;2023-01-01T06:35:58;18.30;;;11.13;;
21114;SDS011;10715;48.546;9.896;2023-01-01T06:38:26;16.27;;;11.07;;
21114;SDS011;10715;48.546;9.896;2023-01-01T06:41:11;18.23;;;10.70;;
21114;SDS011;10715;48.546;9.896;2023-01-01T06:43:38;24.13;;;12.47;;
21114;SDS011;10715;48.546;9.896;2023-01-01T06:46:21;23.80;;;10.63;;
21114;SDS011;10715;48.546;9.896;2023-01-01T06:48:56;15.90;;;10.50;;
21114;SDS011;10715;48.546;9.896;2023-01-01T06:51:36;17.80;;;11.30;;
21114;SDS011;10715;48.546;9.896;2023-01-01T06:54:07;19.00;;;11.00;;
21114;SDS011;10715;48.546;9.896;2023-01-01T06:56:34;22.27;;;12.23;;
21114;SDS011;10715;48.546;9.896;2023-01-01T06:59:00;17.77;;;11.30;;
21114;SDS011;10715;48.546;9.896;2023-01-01T07:01:27;19.13;;;10.67;;
21114;SDS011;10715;48.546;9.896;2023-01-01T07:03:55;14.90;;;9.80;;
21114;SDS011;10715;48.546;9.896;2023-01-01T07:06:26;17.53;;;10.70;;
21114;SDS011;10715;48.546;9.896;2023-01-01T07:08:53;12.10;;;9.13;;
21114;SDS011;10715;48.546;9.896;2023-01-01T07:11:19;16.20;;;11.00;;
21114;SDS011;10715;48.546;9.896;2023-01-01T07:13:45;12.67;;;10.27;;
21114;SDS011;10715;48.546;9.896;2023-01-01T07:16:11;14.03;;;9.70;;
21114;SDS011;10715;48.546;9.896;2023-01-01T07:18:37;20.13;;;10.37;;
21114;SDS011;10715;48.546;9.896;2023-01-01T07:21:03;21.40;;;10.23;;
21114;SDS011;10715;48.546;9.896;2023-01-01T07:23:31;15.43;;;9.83;;
21114;SDS011;10715;48.546;9.896;2023-01-01T07:25:58;24.77;;;8.50;;
21114;SDS011;10715;48.546;9.896;2023-01-01T07:28:25;15.57;;;10.07;;
21114;SDS011;10715;48.546;9.896;2023-01-01T07:30:51;16.40;;;8.93;;
21114;SDS011;10715;48.546;9.896;2023-01-01T07:33:18;10.00;;;7.87;;
21114;SDS011;10715;48.546;9.896;2023-01-01T07:35:45;18.07;;;7.87;;
21114;SDS011;10715;48.546;9.896;2023-01-01T07:38:12;8.63;;;7.70;;
21114;SDS011;10715;48.546;9.896;2023-01-01T07:40:38;13.90;;;7.07;;
21114;SDS011;10715;48.546;9.896;2023-01-01T07:43:04;11.10;;;7.87;;
21114;SDS011;10715;48.546;9.896;2023-01-01T07:45:31;9.67;;;6.23;;
21114;SDS011;10715;48.546;9.896;2023-01-01T07:47:57;9.77;;;6.63;;
21114;SDS011;10715;48.546;9.896;2023-01-01T07:50:25;16.03;;;7.60;;
21114;SDS011;10715;48.546;9.896;2023-01-01T07:52:53;12.60;;;7.17;;
21114;SDS011;10715;48.546;9.896;2023-01-01T07:55:19;11.00;;;8.03;;
21114;SDS011;10715;48.546;9.896;2023-01-01T07:57:45;17.20;;;10.30;;
21114;SDS011;10715;48.546;9.896;2023-01-01T08:00:13;13.60;;;11.10;;
21114;SDS011;10715;48.546;9.896;2023-01-01T08:02:41;13.00;;;8.50;;
21114;SDS011;10715;48.546;9.896;2023-01-01T08:05:08;11.70;;;9.20;;
21114;SDS011;10715;48.546;9.896;2023-01-01T08:07:34;9.67;;;8.20;;
21114;SDS011;10715;48.546;9.896;2023-01-01T08:09:59;14.00;;;10.07;;
21114;SDS011;10715;48.546;9.896;2023-01-01T08:12:25;13.40;;;8.50;;
21114;SDS011;10715;48.546;9.896;2023-01-01T08:14:51;13.53;;;8.57;;
21114;SDS011;10715;48.546;9.896;2023-01-01T08:17:17;16.40;;;8.53;;
21114;SDS011;10715;48.546;9.896;2023-01-01T08:19:43;15.93;;;8.90;;
21114;SDS011;10715;48.546;9.896;2023-01-01T08:22:09;12.30;;;8.00;;
21114;SDS011;10715;48.546;9.896;2023-01-01T08:24:34;9.77;;;6.60;;
21114;SDS011;10715;48.546;9.896;2023-01-01T08:27:00;8.90;;;6.07;;
21114;SDS011;10715;48.546;9.896;2023-01-01T08:29:26;12.93;;;6.57;;
21114;SDS011;10715;48.546;9.896;2023-01-01T08:31:51;10.43;;;7.63;;
21114;SDS011;10715;48.546;9.896;2023-01-01T08:34:17;16.33;;;8.33;;
21114;SDS011;10715;48.546;9.896;2023-01-01T08:36:43;12.33;;;7.30;;
21114;SDS011;10715;48.546;9.896;2023-01-01T08:39:08;12.70;;;7.10;;
21114;SDS011;10715;48.546;9.896;2023-01-01T08:41:35;11.70;;;6.10;;
21114;SDS011;10715;48.546;9.896;2023-01-01T08:44:00;7.20;;;5.17;;
21114;SDS011;10715;48.546;9.896;2023-01-01T08:46:26;3.10;;;2.67;;
21114;SDS011;10715;48.546;9.896;2023-01-01T08:48:52;6.37;;;3.23;;
21114;SDS011;10715;48.546;9.896;2023-01-01T08:51:17;5.37;;;3.93;;
21114;SDS011;10715;48.546;9.896;2023-01-01T08:53:43;3.50;;;3.20;;
21114;SDS011;10715;48.546;9.896;2023-01-01T08:56:09;3.77;;;3.10;;
21114;SDS011;10715;48.546;9.896;2023-01-01T08:58:36;5.07;;;3.40;;
21114;SDS011;10715;48.546;9.896;2023-01-01T09:01:04;10.60;;;3.03;;
21114;SDS011;10715;48.546;9.896;2023-01-01T09:03:31;5.50;;;5.00;;
21114;SDS011;10715;48.546;9.896;2023-01-01T09:05:57;5.77;;;3.63;;
21114;SDS011;10715;48.546;9.896;2023-01-01T09:08:23;37.57;;;3.50;;
21114;SDS011;10715;48.546;9.896;2023-01-01T09:10:50;7.60;;;5.40;;
21114;SDS011;10715;48.546;9.896;2023-01-01T09:13:18;9.00;;;7.70;;
21114;SDS011;10715;48.546;9.896;2023-01-01T09:15:45;7.40;;;6.63;;
21114;SDS011;10715;48.546;9.896;2023-01-01T09:18:11;6.03;;;5.47;;
21114;SDS011;10715;48.546;9.896;2023-01-01T09:20:37;8.37;;;3.93;;
21114;SDS011;10715;48.546;9.896;2023-01-01T09:23:03;4.40;;;4.00;;
21114;SDS011;10715;48.546;9.896;2023-01-01T09:25:30;4.10;;;3.70;;
21114;SDS011;10715;48.546;9.896;2023-01-01T09:28:00;7.70;;;6.00;;
21114;SDS011;10715;48.546;9.896;2023-01-01T09:30:28;6.90;;;5.80;;
21114;SDS011;10715;48.546;9.896;2023-01-01T09:32:54;5.43;;;4.93;;
21114;SDS011;10715;48.546;9.896;2023-01-01T09:35:20;5.37;;;2.47;;
21114;SDS011;10715;48.546;9.896;2023-01-01T09:37:46;7.53;;;3.47;;
21114;SDS011;10715;48.546;9.896;2023-01-01T09:40:30;2.87;;;2.23;;
21114;SDS011;10715;48.546;9.896;2023-01-01T09:45:54;2.97;;;2.67;;
21114;SDS011;10715;48.546;9.896;2023-01-01T09:48:20;3.27;;;3.00;;
21114;SDS011;10715;48.546;9.896;2023-01-01T09:50:49;2.93;;;1.97;;
21114;SDS011;10715;48.546;9.896;2023-01-01T09:55:44;2.00;;;1.40;;
21114;SDS011;10715;48.546;9.896;2023-01-01T09:58:23;3.30;;;2.97;;
21114;SDS011;10715;48.546;9.896;2023-01-01T10:00:51;1.73;;;1.30;;
21114;SDS011;10715;48.546;9.896;2023-01-01T10:03:32;1.63;;;1.50;;
21114;SDS011;10715;48.546;9.896;2023-01-01T10:06:22;1.30;;;1.20;;
21114;SDS011;10715;48.546;9.896;2023-01-01T10:11:49;3.70;;;2.10;;
21114;SDS011;10715;48.546;9.896;2023-01-01T10:14:34;2.50;;;2.27;;
21114;SDS011;10715;48.546;9.896;2023-01-01T10:19:51;4.10;;;1.20;;
21114;SDS011;10715;48.546;9.896;2023-01-01T10:22:22;1.80;;;1.40;;
21114;SDS011;10715;48.546;9.896;2023-01-01T10:24:51;5.63;;;1.53;;
21114;SDS011;10715;48.546;9.896;2023-01-01T10:27:49;2.70;;;1.20;;
21114;SDS011;10715;48.546;9.896;2023-01-01T10:30:22;1.40;;;0.90;;
21114;SDS011;10715;48.546;9.896;2023-01-01T10:32:52;3.10;;;1.43;;
21114;SDS011;10715;48.546;9.896;2023-01-01T10:35:23;1.90;;;1.00;;
21114;SDS011;10715;48.546;9.896;2023-01-01T10:38:03;1.30;;;0.80;;
21114;SDS011;10715;48.546;9.896;2023-01-01T10:40:29;1.80;;;1.00;;
21114;SDS011;10715;48.546;9.896;2023-01-01T10:42:57;2.90;;;1.03;;
21114;SDS011;10715;48.546;9.896;2023-01-01T10:50:48;2.00;;;1.43;;
21114;SDS011;10715;48.546;9.896;2023-01-01T10:56:18;1.77;;;1.17;;
21114;SDS011;10715;48.546;9.896;2023-01-01T10:58:52;2.40;;;1.50;;
21114;SDS011;10715;48.546;9.896;2023-01-01T11:01:21;1.43;;;1.33;;
21114;SDS011;10715;48.546;9.896;2023-01-01T11:03:55;2.10;;;1.57;;
21114;SDS011;10715;48.546;9.896;2023-01-01T11:06:35;2.20;;;1.67;;
21114;SDS011;10715;48.546;9.896;2023-01-01T11:09:22;2.27;;;0.90;;
21114;SDS011;10715;48.546;9.896;2023-01-01T11:12:02;2.10;;;1.80;;
21114;SDS011;10715;48.546;9.896;2023-01-01T11:14:51;3.13;;;2.70;;
21114;SDS011;10715;48.546;9.896;2023-01-01T11:17:30;2.60;;;1.90;;
21114;SDS011;10715;48.546;9.896;2023-01-01T11:19:59;2.70;;;1.13;;
21114;SDS011;10715;48.546;9.896;2023-01-01T11:22:45;2.60;;;2.40;;
21114;SDS011;10715;48.546;9.896;2023-01-01T11:27:47;2.03;;;1.17;;
21114;SDS011;10715;48.546;9.896;2023-01-01T11:30:21;3.47;;;0.87;;
21114;SDS011;10715;48.546;9.896;2023-01-01T11:32:53;1.30;;;1.10;;
21114;SDS011;10715;48.546;9.896;2023-01-01T11:35:24;2.17;;;1.40;;
21114;SDS011;10715;48.546;9.896;2023-01-01T11:37:52;1.60;;;0.97;;
21114;SDS011;10715;48.546;9.896;2023-01-01T11:40:21;1.97;;;0.80;;
21114;SDS011;10715;48.546;9.896;2023-01-01T11:43:00;1.40;;;1.00;;
21114;SDS011;10715;48.546;9.896;2023-01-01T11:45:32;1.70;;;1.23;;
21114;SDS011;10715;48.546;9.896;2023-01-01T11:48:03;1.73;;;0.83;;
21114;SDS011;10715;48.546;9.896;2023-01-01T11:50:40;2.30;;;1.67;;
21114;SDS011;10715;48.546;9.896;2023-01-01T11:58:18;2.10;;;1.43;;
21114;SDS011;10715;48.546;9.896;2023-01-01T12:00:59;1.20;;;0.77;;
21114;SDS011;10715;48.546;9.896;2023-01-01T12:06:18;1.63;;;1.00;;
21114;SDS011;10715;48.546;9.896;2023-01-01T12:11:34;2.50;;;1.53;;
21114;SDS011;10715;48.546;9.896;2023-01-01T12:21:58;3.40;;;3.10;;
21114;SDS011;10715;48.546;9.896;2023-01-01T12:24:27;2.07;;;1.73;;
21114;SDS011;10715;48.546;9.896;2023-01-01T12:27:04;3.40;;;1.97;;
21114;SDS011;10715;48.546;9.896;2023-01-01T12:43:10;2.00;;;0.80;;
21114;SDS011;10715;48.546;9.896;2023-01-01T12:46:11;1.93;;;1.00;;
21114;SDS011;10715;48.546;9.896;2023-01-01T12:51:36;3.80;;;2.53;;
21114;SDS011;10715;48.546;9.896;2023-01-01T12:59:35;7.43;;;2.07;;
21114;SDS011;10715;48.546;9.896;2023-01-01T13:02:13;3.77;;;1.20;;
21114;SDS011;10715;48.546;9.896;2023-01-01T13:04:47;3.37;;;1.40;;
21114;SDS011;10715;48.546;9.896;2023-01-01T13:07:17;2.27;;;1.57;;
21114;SDS011;10715;48.546;9.896;2023-01-01T13:09:51;9.00;;;3.40;;
21114;SDS011;10715;48.546;9.896;2023-01-01T13:12:18;2.93;;;1.40;;
21114;SDS011;10715;48.546;9.896;2023-01-01T13:14:47;2.07;;;0.80;;
21114;SDS011;10715;48.546;9.896;2023-01-01T13:17:17;1.33;;;0.77;;
21114;SDS011;10715;48.546;9.896;2023-01-01T13:19:44;2.20;;;1.10;;
21114;SDS011;10715;48.546;9.896;2023-01-01T13:25:03;2.27;;;0.90;;
21114;SDS011;10715;48.546;9.896;2023-01-01T13:38:51;1.77;;;1.00;;
21114;SDS011;10715;48.546;9.896;2023-01-01T14:02:50;2.07;;;1.90;;
21114;SDS011;10715;48.546;9.896;2023-01-01T14:08:01;4.00;;;1.87;;
21114;SDS011;10715;48.546;9.896;2023-01-01T14:10:34;1.37;;;1.27;;
21114;SDS011;10715;48.546;9.896;2023-01-01T14:13:13;2.27;;;1.43;;
21114;SDS011;10715;48.546;9.896;2023-01-01T14:15:51;2.53;;;2.33;;
21114;SDS011;10715;48.546;9.896;2023-01-01T14:18:23;3.37;;;1.77;;
21114;SDS011;10715;48.546;9.896;2023-01-01T14:20:56;5.70;;;3.30;;
21114;SDS011;10715;48.546;9.896;2023-01-01T14:23:26;7.03;;;3.10;;
21114;SDS011;10715;48.546;9.896;2023-01-01T14:25:58;4.37;;;2.30;;
21114;SDS011;10715;48.546;9.896;2023-01-01T14:28:27;4.87;;;2.60;;
21114;SDS011;10715;48.546;9.896;2023-01-01T14:30:55;5.07;;;3.57;;
21114;SDS011;10715;48.546;9.896;2023-01-01T14:33:26;7.07;;;2.50;;
21114;SDS011;10715;48.546;9.896;2023-01-01T14:35:55;3.20;;;1.93;;
21114;SDS011;10715;48.546;9.896;2023-01-01T14:38:23;4.20;;;1.73;;
21114;SDS011;10715;48.546;9.896;2023-01-01T14:41:13;1.67;;;1.53;;
21114;SDS011;10715;48.546;9.896;2023-01-01T14:43:40;3.87;;;1.30;;
21114;SDS011;10715;48.546;9.896;2023-01-01T14:46:12;1.33;;;1.00;;
21114;SDS011;10715;48.546;9.896;2023-01-01T14:48:44;9.40;;;1.20;;
21114;SDS011;10715;48.546;9.896;2023-01-01T14:51:18;2.43;;;1.20;;
21114;SDS011;10715;48.546;9.896;2023-01-01T14:53:47;3.17;;;1.40;;
21114;SDS011;10715;48.546;9.896;2023-01-01T14:56:25;1.80;;;1.20;;
21114;SDS011;10715;48.546;9.896;2023-01-01T14:59:05;2.30;;;0.80;;
21114;SDS011;10715;48.546;9.896;2023-01-01T15:02:01;1.77;;;1.03;;
21114;SDS011;10715;48.546;9.896;2023-01-01T15:04:38;3.07;;;2.13;;
21114;SDS011;10715;48.546;9.896;2023-01-01T15:07:04;17.67;;;9.30;;
21114;SDS011;10715;48.546;9.896;2023-01-01T15:09:30;7.80;;;5.47;;
21114;SDS011;10715;48.546;9.896;2023-01-01T15:11:57;2.80;;;2.00;;
21114;SDS011;10715;48.546;9.896;2023-01-01T15:16:59;1.80;;;0.93;;
21114;SDS011;10715;48.546;9.896;2023-01-01T15:19:25;1.80;;;1.50;;
21114;SDS011;10715;48.546;9.896;2023-01-01T15:21:51;3.30;;;0.80;;
21114;SDS011;10715;48.546;9.896;2023-01-01T15:24:17;3.23;;;1.40;;
21114;SDS011;10715;48.546;9.896;2023-01-01T15:26:50;1.60;;;1.40;;
21114;SDS011;10715;48.546;9.896;2023-01-01T15:29:28;2.70;;;1.40;;
21114;SDS011;10715;48.546;9.896;2023-01-01T15:32:03;6.60;;;1.50;;
21114;SDS011;10715;48.546;9.896;2023-01-01T15:34:49;2.40;;;1.13;;
21114;SDS011;10715;48.546;9.896;2023-01-01T15:37:34;2.40;;;1.90;;
21114;SDS011;10715;48.546;9.896;2023-01-01T15:45:28;1.93;;;1.67;;
21114;SDS011;10715;48.546;9.896;2023-01-01T15:47:54;3.90;;;1.70;;
21114;SDS011;10715;48.546;9.896;2023-01-01T15:50:25;1.47;;;1.37;;
21114;SDS011;10715;48.546;9.896;2023-01-01T15:52:58;6.10;;;2.23;;
21114;SDS011;10715;48.546;9.896;2023-01-01T15:55:33;2.87;;;1.63;;
21114;SDS011;10715;48.546;9.896;2023-01-01T15:58:01;6.70;;;1.60;;
21114;SDS011;10715;48.546;9.896;2023-01-01T16:00:29;2.80;;;1.23;;
21114;SDS011;10715;48.546;9.896;2023-01-01T16:02:59;1.87;;;1.67;;
21114;SDS011;10715;48.546;9.896;2023-01-01T16:05:35;3.10;;;2.13;;
21114;SDS011;10715;48.546;9.896;2023-01-01T16:08:04;7.73;;;1.37;;
21114;SDS011;10715;48.546;9.896;2023-01-01T16:10:30;4.20;;;1.67;;
21114;SDS011;10715;48.546;9.896;2023-01-01T16:12:56;2.83;;;1.63;;
21114;SDS011;10715;48.546;9.896;2023-01-01T16:15:23;6.03;;;3.30;;
21114;SDS011;10715;48.546;9.896;2023-01-01T16:17:49;1.87;;;1.63;;
21114;SDS011;10715;48.546;9.896;2023-01-01T16:20:15;2.00;;;1.90;;
21114;SDS011;10715;48.546;9.896;2023-01-01T16:22:43;3.23;;;1.60;;
21114;SDS011;10715;48.546;9.896;2023-01-01T16:27:39;3.80;;;1.87;;
21114;SDS011;10715;48.546;9.896;2023-01-01T16:30:05;3.30;;;1.23;;
21114;SDS011;10715;48.546;9.896;2023-01-01T16:32:31;3.20;;;1.33;;
21114;SDS011;10715;48.546;9.896;2023-01-01T16:34:57;2.77;;;1.43;;
21114;SDS011;10715;48.546;9.896;2023-01-01T16:37:23;6.67;;;1.07;;
21114;SDS011;10715;48.546;9.896;2023-01-01T16:39:49;1.97;;;1.27;;
21114;SDS011;10715;48.546;9.896;2023-01-01T16:42:14;4.80;;;0.90;;
21114;SDS011;10715;48.546;9.896;2023-01-01T16:44:40;2.77;;;2.57;;
21114;SDS011;10715;48.546;9.896;2023-01-01T16:47:07;4.17;;;1.37;;
21114;SDS011;10715;48.546;9.896;2023-01-01T16:49:33;2.70;;;1.57;;
21114;SDS011;10715;48.546;9.896;2023-01-01T16:51:58;1.57;;;1.17;;
21114;SDS011;10715;48.546;9.896;2023-01-01T16:54:24;2.80;;;1.30;;
21114;SDS011;10715;48.546;9.896;2023-01-01T16:56:50;2.73;;;2.57;;
21114;SDS011;10715;48.546;9.896;2023-01-01T16:59:15;3.03;;;2.50;;
21114;SDS011;10715;48.546;9.896;2023-01-01T17:01:41;3.70;;;2.40;;
21114;SDS011;10715;48.546;9.896;2023-01-01T17:04:08;3.80;;;3.40;;
21114;SDS011;10715;48.546;9.896;2023-01-01T17:06:36;4.80;;;2.30;;
21114;SDS011;10715;48.546;9.896;2023-01-01T17:09:03;3.43;;;3.07;;